• Join FlightAware (Why Join?)
  • Login
  • US Flag 
05:57PM EDT


 

Airport Tracker/Info


-or-


 

Live Flight TrackerFlight Track Log ✈ N360FE ✈ 17-Apr-2013 ✈ KMEM - KLAX

Flight Track Log - Related Links

Times and Time Zones

All times are in EDT time to prevent confusion due to time zone crossing. See the N360FE flight status page for this flight to view local times or setup timezone preferences in your user account.

Time Position Orientation Groundspeed Altitude Reporting Facility
EDT Latitude Longitude Course Direction KTS MPH feet Rate Location/Type
05:13AM 35.0167 -89.9667 202° Southwest 188 216 1,100  Level KMEM
05:14AM 34.9833 -89.9833 202° Southwest 170 196 2,000 1,380 Climbing KMEM
05:15AM 34.9500 -90.0167 219° Southwest 233 268 3,400 1,980 Climbing KMEM
05:16AM 34.9500 -90.1167 270° West 270 311 6,000 2,400 Climbing KMEM
05:17AM 34.9667 -90.2167 282° West 277 319 8,800 1,920 Climbing KMEM
05:18AM 34.9739 -90.3367 274° West 327 376 10,600 1,260 Climbing Memphis Center
05:19AM 34.9864 -90.4558 277° West 351 404 11,700 1,380 Climbing Memphis Center
05:20AM 35.0008 -90.5853 278° West 381 438 13,400 1,860 Climbing Memphis Center
05:21AM 35.0153 -90.7172 278° West 393 452 15,500 2,100 Climbing Memphis Center
05:22AM 35.0314 -90.8517 278° West 399 459 17,600 1,740 Climbing Memphis Center
05:23AM 35.0558 -91.0039 281° West 409 471 19,000 1,500 Climbing Memphis Center
05:24AM 35.0800 -91.1464 282° West 414 476 20,700 1,560 Climbing Memphis Center
05:25AM 35.1019 -91.2886 281° West 419 482 22,200 1,500 Climbing Memphis Center
05:26AM 35.1239 -91.4336 281° West 436 502 23,800 1,380 Climbing Memphis Center
05:27AM 35.1475 -91.5786 281° West 436 502 25,000 1,020 Climbing Memphis Center
05:28AM 35.1708 -91.7261 281° West 431 496 25,900 1,020 Climbing Memphis Center
05:29AM 35.1922 -91.8764 280° West 446 513 27,100 1,080 Climbing Memphis Center
05:30AM 35.2153 -92.0294 280° West 453 521 28,100 1,020 Climbing Memphis Center
05:31AM 35.2403 -92.1850 281° West 458 527 29,200 1,140 Climbing Memphis Center
05:32AM 35.2608 -92.3381 279° West 463 533 30,400 1,200 Climbing Memphis Center
05:33AM 35.2856 -92.4886 281° West 463 533 31,600 1,020 Climbing Memphis Center
05:34AM 35.3078 -92.6394 280° West 463 533 32,500 900 Climbing Memphis Center
05:35AM 35.3300 -92.7928 280° West 458 527 33,400 720 Climbing Memphis Center
05:36AM 35.3539 -92.9461 281° West 458 527 34,000 300 Climbing Memphis Center
05:37AM 35.3758 -93.0944 280° West 453 521 34,000  Level Memphis Center
05:38AM 35.3953 -93.2481 279° West 453 521 34,000  Level Memphis Center
05:39AM 35.4133 -93.3658 281° West 448 516 34,000  Level Memphis Center
05:45AM 35.5250 -94.1740 281° West 447 514 34,000  Level FlightAware
05:45AM 35.5390 -94.2720 280° West 447 514 34,000  Level FlightAware
05:46AM 35.5550 -94.3860 280° West 445 512 34,000  Level FlightAware
05:47AM 35.5680 -94.4830 279° West 443 510 34,000  Level FlightAware
05:47AM 35.5820 -94.5790 280° West 441 507 34,000  Level FlightAware
05:48AM 35.5970 -94.6880 280° West 442 509 34,000  Level FlightAware
05:49AM 35.6110 -94.7940 279° West 439 505 34,000  Level FlightAware
05:50AM 35.6260 -94.9030 280° West 439 505 34,000  Level FlightAware
05:50AM 35.6390 -95.0010 279° West 439 505 34,000  Level FlightAware
05:51AM 35.6550 -95.1200 279° West 442 509 34,000  Level FlightAware
05:52AM 35.6680 -95.2250 279° West 442 509 34,000 60 Level FlightAware
05:53AM 35.6880 -95.3720 280° West 447 514 34,100 60 Climbing FlightAware
05:53AM 35.7010 -95.4760 279° West 447 514 34,100  Level FlightAware
05:54AM 35.7170 -95.6000 279° West 448 516 34,100 -120 Level FlightAware
05:55AM 35.7300 -95.6990 279° West 444 511 34,000 -120 Descending FlightAware
05:55AM 35.7410 -95.7840 279° West 443 510 34,000  Level FlightAware
05:56AM 35.7540 -95.8880 279° West 443 510 34,000  Level FlightAware
05:57AM 35.7660 -95.9920 278° West 443 510 34,000  Level FlightAware
05:58AM 35.7850 -96.1380 279° West 445 512 34,000  Level FlightAware
05:58AM 35.7970 -96.2330 279° West 446 513 34,000  Level FlightAware
05:59AM 35.8090 -96.3280 279° West 446 513 34,000 60 Level FlightAware
06:00AM 35.8280 -96.4850 279° West 448 516 34,100 60 Climbing FlightAware
06:01AM 35.8360 -96.5530 278° West 448 516 34,100  Level FlightAware
06:02AM 35.8550 -96.7200 278° West 447 514 34,100 -60 Level FlightAware
06:03AM 35.8720 -96.8630 278° West 446 513 34,000 -60 Descending FlightAware
06:03AM 35.8850 -96.9710 278° West 445 512 34,000  Level FlightAware
06:04AM 35.8950 -97.0540 278° West 445 512 34,000  Level FlightAware
06:05AM 35.9070 -97.1610 278° West 445 512 34,000  Level FlightAware
06:05AM 35.9160 -97.2470 277° West 445 512 34,000  Level FlightAware
06:06AM 35.9340 -97.4070 278° West 443 510 34,000  Level FlightAware
06:07AM 35.9500 -97.5420 278° West 442 509 34,000  Level FlightAware
06:08AM 35.9610 -97.6340 278° West 442 509 34,000  Level FlightAware
06:08AM 35.9710 -97.7370 277° West 442 509 34,000  Level FlightAware
06:09AM 35.9790 -97.8220 277° West 442 509 34,000  Level FlightAware
06:10AM 35.9940 -97.9380 279° West 443 510 34,000 60 Level FlightAware
06:11AM 36.0010 -98.0660 274° West 439 505 34,100  Climbing FlightAware
06:11AM 36.0020 -98.1630 271° West 438 504 34,000 -120 Descending FlightAware
06:12AM 36.0020 -98.2570 270° West 438 504 34,000  Level FlightAware
06:13AM 36.0020 -98.3420 270° West 438 504 34,000  Level FlightAware
06:13AM 36.0030 -98.4570 271° West 437 503 34,000  Level FlightAware
06:14AM 36.0030 -98.5640 270° West 437 503 34,000  Level FlightAware
06:15AM 36.0030 -98.6490 270° West 437 503 34,000  Level FlightAware
06:15AM 36.0030 -98.7340 270° West 437 503 34,000  Level FlightAware
06:16AM 36.0030 -98.8190 270° West 437 503 34,000  Level FlightAware
06:17AM 36.0030 -98.9040 270° West 437 503 34,000  Level FlightAware
06:18AM 36.0030 -99.0100 270° West 437 503 34,000  Level FlightAware
06:18AM 36.0030 -99.0730 270° West 437 503 34,000  Level FlightAware
06:19AM 36.0030 -99.1800 270° West 437 503 34,000  Level FlightAware
06:20AM 36.0030 -99.2650 270° West 437 503 34,000  Level FlightAware
06:20AM 36.0030 -99.3500 270° West 437 503 34,000  Level FlightAware
06:21AM 36.0030 -99.4560 270° West 437 503 34,000  Level FlightAware
06:22AM 36.0030 -99.5410 270° West 437 503 34,000  Level FlightAware
06:22AM 36.0030 -99.6260 270° West 437 503 34,000  Level FlightAware
06:23AM 36.0014 -99.8803 270° West 435 501 34,000 60 Level Kansas City Center
06:24AM 35.9989 -100.0306 269° West 436 502 34,100  Climbing Kansas City Center
06:25AM 36.0031 -100.1817 272° West 437 503 34,100  Level Kansas City Center
06:25AM 36.0036 -100.2414 271° West 437 503 34,100 -120 Level Albuquerque Center
06:26AM 36.0067 -100.3908 271° West 436 502 34,000 -60 Descending Albuquerque Center
06:27AM 36.0094 -100.5381 271° West 433 498 34,000  Level Albuquerque Center
06:28AM 36.0094 -100.6856 270° West 430 495 34,000  Level Albuquerque Center
06:29AM 36.0114 -100.8314 271° West 426 490 34,000  Level Albuquerque Center
06:30AM 36.0122 -100.9800 270° West 429 494 34,000  Level Albuquerque Center
06:31AM 36.0142 -101.1536 271° West 433 498 34,000  Level Albuquerque Center
06:32AM 36.0153 -101.3014 271° West 434 499 34,100  Climbing Albuquerque Center
06:33AM 36.0161 -101.4500 270° West 436 502 34,000 -60 Descending Albuquerque Center
06:34AM 36.0167 -101.5989 270° West 437 503 34,000  Level Albuquerque Center
06:35AM 36.0178 -101.7469 271° West 436 502 34,000  Level Albuquerque Center
06:36AM 36.0181 -101.8967 270° West 438 504 34,000  Level Albuquerque Center
06:37AM 36.0167 -102.0492 269° West 445 512 34,000  Level Albuquerque Center
06:38AM 36.0172 -102.1992 270° West 442 509 34,000  Level Albuquerque Center
06:39AM 36.0178 -102.3508 270° West 443 510 34,100  Climbing Albuquerque Center
06:40AM 36.0156 -102.5014 269° West 443 510 34,000 -60 Descending Albuquerque Center
06:41AM 36.0150 -102.6467 270° West 430 495 34,000  Level Albuquerque Center
06:42AM 36.0144 -102.7917 270° West 427 491 34,000  Level Albuquerque Center
06:43AM 36.0133 -102.9531 270° West 431 496 34,100  Climbing Albuquerque Center
06:44AM 36.0119 -103.0958 269° West 419 482 34,000 -60 Descending Albuquerque Center
06:45AM 36.0106 -103.2383 269° West 413 475 34,000  Level Albuquerque Center
06:46AM 36.0094 -103.3789 269° West 409 471 34,000  Level Albuquerque Center
06:47AM 36.0078 -103.4961 269° West 408 470 34,000  Level Albuquerque Center
06:48AM 36.0058 -103.6372 269° West 409 471 34,100  Climbing Albuquerque Center
06:49AM 36.0042 -103.7764 269° West 407 468 34,000 -60 Descending Albuquerque Center
06:50AM 36.0028 -103.9156 269° West 405 466 34,000  Level Albuquerque Center
06:51AM 35.9994 -104.0564 268° West 407 468 34,000  Level Albuquerque Center
06:52AM 36.0019 -104.1964 271° West 407 468 34,100  Climbing Albuquerque Center
06:53AM 36.0025 -104.3378 270° West 409 471 34,000 -60 Descending Albuquerque Center
06:54AM 36.0036 -104.4792 271° West 410 472 34,000  Level Albuquerque Center
06:55AM 36.0039 -104.6214 270° West 412 474 34,000  Level Albuquerque Center
06:56AM 36.0050 -104.7636 271° West 412 474 34,000  Level Albuquerque Center
06:57AM 36.0050 -104.9056 270° West 413 475 34,000  Level Albuquerque Center
07:03AM 36.0030 -105.6500 270° West 408 470 34,000  Level FlightAware
07:03AM 36.0020 -105.7460 269° West 408 470 34,000  Level FlightAware
07:04AM 36.0010 -105.8260 269° West 408 470 34,000  Level FlightAware
07:05AM 36.0010 -105.9480 270° West 394 453 34,000  Level FlightAware
07:05AM 36.0000 -106.0300 269° West 395 455 34,000  Level FlightAware
07:06AM 35.9990 -106.1060 269° West 395 455 34,000  Level FlightAware
07:07AM 35.9980 -106.1830 269° West 395 455 34,000  Level FlightAware
07:08AM 36.0030 -106.3700 272° West 409 471 34,100  Climbing FlightAware
07:08AM 36.0040 -106.4580 271° West 406 467 34,000 -120 Descending FlightAware
07:09AM 36.0040 -106.5960 270° West 401 461 34,000  Level FlightAware
07:10AM 36.0040 -106.6870 270° West 399 459 34,000  Level FlightAware
07:11AM 36.0050 -106.7940 271° West 396 456 34,000  Level FlightAware
07:12AM 36.0050 -106.8910 270° West 395 455 34,000  Level FlightAware
07:12AM 36.0050 -107.0190 270° West 394 453 34,000  Level FlightAware
07:13AM 36.0050 -107.1070 270° West 396 456 34,000  Level FlightAware
07:14AM 36.0010 -107.1990 267° West 394 453 34,000 60 Level FlightAware
07:15AM 35.9840 -107.2930 257° West 393 452 34,100 60 Climbing FlightAware
07:15AM 35.9650 -107.3940 257° West 396 456 34,100  Level FlightAware
07:16AM 35.9480 -107.4840 257° West 396 456 34,100  Level FlightAware
07:17AM 35.9320 -107.5660 256° West 399 459 34,100  Level FlightAware
07:17AM 35.9120 -107.6700 257° West 400 460 34,100  Level FlightAware
07:18AM 35.8950 -107.7580 257° West 396 456 34,100 -120 Level FlightAware
07:19AM 35.8760 -107.8540 256° West 388 447 34,000 -120 Descending FlightAware
07:19AM 35.8590 -107.9390 256° West 381 438 34,000  Level FlightAware
07:20AM 35.8440 -108.0140 256° West 381 438 34,000  Level FlightAware
07:21AM 35.8280 -108.0990 257° West 382 440 34,000  Level FlightAware
07:21AM 35.8150 -108.1710 257° West 382 440 34,000  Level FlightAware
07:22AM 35.7980 -108.2620 257° West 382 440 34,000  Level FlightAware
07:23AM 35.7840 -108.3340 257° West 382 440 34,000  Level FlightAware
07:24AM 35.7600 -108.4600 257° West 379 436 34,000  Level FlightAware
07:24AM 35.7440 -108.5420 257° West 379 436 34,000  Level FlightAware
07:25AM 35.7200 -108.6660 257° West 379 436 34,000  Level FlightAware
07:26AM 35.7020 -108.7550 256° West 379 436 34,000  Level FlightAware
07:27AM 35.6880 -108.8260 256° West 379 436 34,000  Level FlightAware
07:27AM 35.6740 -108.8970 256° West 379 436 34,000  Level FlightAware
07:28AM 35.6590 -108.9680 255° West 379 436 34,000  Level FlightAware
07:29AM 35.6450 -109.0390 256° West 379 436 34,000  Level FlightAware
07:30AM 35.6270 -109.1280 256° West 379 436 34,000  Level FlightAware
07:30AM 35.6120 -109.2000 256° West 379 436 34,000  Level FlightAware
07:31AM 35.5980 -109.2710 256° West 379 436 34,000  Level FlightAware
07:32AM 35.5830 -109.3420 255° West 379 436 34,000  Level FlightAware
07:32AM 35.5690 -109.4130 256° West 379 436 34,000  Level FlightAware
07:33AM 35.5510 -109.5020 256° West 379 436 34,000  Level FlightAware
07:34AM 35.5360 -109.5730 255° West 379 436 34,000  Level FlightAware
07:34AM 35.5220 -109.6440 256° West 379 436 34,000 1,260 Level FlightAware
07:35AM 35.4733 -109.9056 256° West 379 436 36,000 1,680 Climbing Los Angeles Center
07:36AM 35.4650 -109.9500 257° West 377 434 36,000  Level Albuquerque Center
07:42AM 35.3230 -110.6330 257° West 376 433 36,000  Level FlightAware
07:42AM 35.3070 -110.7110 256° West 376 433 36,000  Level FlightAware
07:43AM 35.2870 -110.8040 255° West 379 436 36,000 60 Level FlightAware
07:44AM 35.2680 -110.8930 255° West 375 432 36,100  Climbing FlightAware
07:44AM 35.2480 -110.9890 256° West 374 430 36,000  Descending FlightAware
07:45AM 35.2260 -111.0900 255° West 364 419 36,100  Climbing FlightAware
07:46AM 35.2080 -111.1750 255° West 361 415 36,000 -60 Descending FlightAware
07:47AM 35.1820 -111.2930 255° West 367 422 36,000  Level FlightAware
07:48AM 35.1570 -111.4080 255° West 364 419 36,000  Level FlightAware
07:49AM 35.1330 -111.5150 255° West 370 426 36,000  Level FlightAware
07:50AM 35.1070 -111.6330 255° West 365 420 36,000  Level FlightAware
07:50AM 35.0760 -111.7750 255° West 361 415 36,000  Level FlightAware
07:51AM 35.0610 -111.8420 255° West 361 415 36,000  Level FlightAware
07:52AM 35.0330 -111.9660 255° West 358 412 36,000  Level FlightAware
07:53AM 35.0080 -112.0800 255° West 358 412 36,000  Level FlightAware
07:54AM 34.9880 -112.1700 255° West 360 414 36,000  Level FlightAware
07:54AM 34.9710 -112.2410 254° West 359 413 36,000  Level FlightAware
07:55AM 34.9510 -112.3330 255° West 360 414 36,000  Level FlightAware
07:56AM 34.9330 -112.4110 254° West 360 414 36,000  Level FlightAware
07:57AM 34.9150 -112.4890 254° West 360 414 36,000  Level FlightAware
07:57AM 34.8950 -112.5770 255° West 361 415 36,000  Level FlightAware
07:58AM 34.8780 -112.6520 255° West 360 414 36,000  Level FlightAware
07:59AM 34.8560 -112.7440 254° West 363 418 36,000  Level FlightAware
07:59AM 34.8380 -112.8230 255° West 365 420 36,000  Level FlightAware
08:00AM 34.8190 -112.9040 254° West 365 420 36,000  Level FlightAware
08:01AM 34.7990 -112.9910 254° West 366 421 36,000  Level FlightAware
08:01AM 34.7810 -113.0690 254° West 369 425 36,000  Level FlightAware
08:02AM 34.7610 -113.1510 253° West 371 427 36,000 60 Level FlightAware
08:03AM 34.7400 -113.2440 255° West 374 430 36,100 60 Climbing FlightAware
08:04AM 34.7210 -113.3240 254° West 371 427 36,100 -120 Level FlightAware
08:04AM 34.6990 -113.4150 254° West 363 418 36,000 -120 Descending FlightAware
08:05AM 34.6810 -113.4900 254° West 361 415 36,000  Level FlightAware
08:06AM 34.6640 -113.5640 254° West 364 419 36,000  Level FlightAware
08:06AM 34.6420 -113.6560 254° West 365 420 36,000  Level FlightAware
08:07AM 34.6230 -113.7330 253° West 366 421 36,000  Level FlightAware
08:08AM 34.6050 -113.8250 257° West 366 421 36,000  Level FlightAware
08:08AM 34.5920 -113.8990 258° West 368 423 36,000  Level FlightAware
08:09AM 34.5740 -113.9980 258° West 370 426 36,000  Level FlightAware
08:10AM 34.5580 -114.0800 257° West 368 423 36,000  Level FlightAware
08:11AM 34.5430 -114.1620 258° West 366 421 36,000  Level FlightAware
08:11AM 34.5270 -114.2480 257° West 368 423 36,000  Level FlightAware
08:12AM 34.5120 -114.3310 258° West 372 428 36,000  Level FlightAware
08:13AM 34.4950 -114.4230 257° West 372 428 36,000  Level FlightAware
08:13AM 34.4780 -114.5080 256° West 369 425 36,000  Level FlightAware
08:14AM 34.4580 -114.6140 257° West 366 421 36,000  Level FlightAware
08:15AM 34.4410 -114.7050 257° West 364 419 36,000  Level FlightAware
08:16AM 34.4200 -114.8130 257° West 369 425 36,000  Level FlightAware
08:17AM 34.4070 -114.8820 257° West 370 426 36,000  Level FlightAware
08:17AM 34.3870 -114.9870 257° West 370 426 36,000  Level FlightAware
08:18AM 34.3740 -115.0470 255° West 371 427 36,000  Level FlightAware
08:19AM 34.3600 -115.1160 256° West 371 427 36,000  Level FlightAware
08:19AM 34.3380 -115.2350 257° West 368 423 36,000  Level FlightAware
08:20AM 34.3230 -115.3160 257° West 369 425 36,000  Level FlightAware
08:21AM 34.3060 -115.3980 256° West 371 427 36,000  Level FlightAware
08:21AM 34.2930 -115.4650 257° West 371 427 36,000  Level FlightAware
08:22AM 34.2720 -115.5710 257° West 367 422 36,000  Level FlightAware
08:23AM 34.2570 -115.6450 256° West 368 423 36,000  Level FlightAware
08:24AM 34.2400 -115.7310 257° West 365 420 36,000  Level FlightAware
08:24AM 34.2210 -115.8260 256° West 365 420 36,000  Level FlightAware
08:25AM 34.2040 -115.9090 256° West 364 419 36,000  Level FlightAware
08:26AM 34.1890 -115.9840 256° West 365 420 36,000  Level FlightAware
08:26AM 34.1710 -116.0720 256° West 371 427 36,000  Level FlightAware
08:27AM 34.1560 -116.1470 256° West 378 435 36,000 -480 Level FlightAware
08:28AM 34.1350 -116.2470 256° West 371 427 35,400 -1,500 Descending FlightAware
08:29AM 34.1190 -116.3260 256° West 357 411 33,800 -2,100 Descending FlightAware
08:29AM 34.1030 -116.4050 256° West 373 429 32,600 -2,100 Descending FlightAware
08:30AM 34.0840 -116.4950 256° West 356 410 30,900 -2,400 Descending FlightAware
08:31AM 34.0680 -116.5710 256° West 344 396 29,200 -2,520 Descending FlightAware
08:31AM 34.0520 -116.6510 256° West 334 384 27,400 -2,520 Descending FlightAware
08:32AM 34.0360 -116.7270 256° West 342 394 25,700 -2,640 Descending FlightAware
08:33AM 34.0210 -116.7990 256° West 343 395 23,900 -2,640 Descending FlightAware
08:33AM 34.0020 -116.8840 255° West 326 375 22,000 -2,400 Descending FlightAware
08:34AM 33.9890 -116.9500 257° West 317 365 20,500 -2,220 Descending FlightAware
08:35AM 33.9720 -117.0270 255° West 306 352 18,900 -2,280 Descending FlightAware
08:36AM 33.9590 -117.0920 256° West 308 354 17,300 -1,800 Descending FlightAware
08:36AM 33.9500 -117.1610 261° West 322 371 16,500 -1,080 Descending FlightAware
08:37AM 33.9440 -117.2350 264° West 323 372 15,900 -900 Descending FlightAware
08:38AM 33.9370 -117.3170 264° West 323 372 15,300 -780 Descending FlightAware
08:38AM 33.9300 -117.3950 264° West 320 368 14,800 -660 Descending FlightAware
08:39AM 33.9240 -117.4650 264° West 319 367 14,400 -660 Descending FlightAware
08:40AM 33.9200 -117.5250 265° West 315 362 14,000 -720 Descending FlightAware
08:40AM 33.9320 -117.6140 279° West 314 361 13,400 -780 Descending FlightAware
08:41AM 33.9420 -117.6850 280° West 317 365 12,900 -720 Descending FlightAware
08:42AM 33.9510 -117.7610 278° West 317 365 12,400 -660 Descending FlightAware
08:43AM 33.9600 -117.8300 279° West 313 360 12,000 -720 Descending FlightAware
08:43AM 33.9690 -117.9000 279° West 317 365 11,500 -720 Descending FlightAware
08:44AM 33.9780 -117.9820 278° West 311 358 11,000 -660 Descending FlightAware
08:45AM 33.9720 -118.0460 264° West 282 325 10,600 -600 Descending FlightAware
08:45AM 33.9670 -118.1070 264° West 273 314 10,200 -600 Descending FlightAware
08:46AM 33.9690 -118.1530 273° West 265 305 9,900 -600 Descending FlightAware
08:46AM 33.9750 -118.1970 279° West 258 297 9,600 -660 Descending FlightAware
08:47AM 33.9790 -118.2280 279° West 237 273 9,300 -780 Descending FlightAware
08:47AM 33.9840 -118.2650 279° West 223 257 8,900 -840 Descending FlightAware
08:48AM 33.9900 -118.3030 281° West 224 258 8,500 -780 Descending FlightAware
08:48AM 33.9920 -118.3160 281° West 224 258 8,400 -780 Descending FlightAware
08:48AM 33.9960 -118.3520 278° West 226 260 8,000 -540 Descending FlightAware
08:49AM 34.0010 -118.3890 279° West 224 258 7,900 -180 Descending FlightAware
08:49AM 34.0030 -118.3990 284° West 225 259 7,900  Level FlightAware
08:50AM 34.0080 -118.4390 279° West 225 259 7,900 -540 Level FlightAware
08:50AM 34.0120 -118.4900 275° West 228 262 7,300 -1,140 Descending FlightAware
08:50AM 34.0130 -118.5110 273° West 226 260 6,900 -1,200 Descending FlightAware
08:51AM 34.0150 -118.5470 274° West 227 261 6,400 -1,140 Descending FlightAware
08:51AM 34.0170 -118.5780 274° West 229 264 5,900 -1,080 Descending FlightAware
08:52AM 34.0190 -118.5950 278° West 228 262 5,700 -1,020 Descending FlightAware
08:52AM 34.0210 -118.6520 272° West 220 253 4,900 -1,140 Descending FlightAware
08:53AM 34.0130 -118.6790 250° West 231 266 4,400 -1,200 Descending FlightAware
08:53AM 33.9980 -118.6880 206° Southwest 235 270 4,100 -1,200 Descending FlightAware
08:53AM 33.9910 -118.6890 187° South 228 262 4,000 -1,200 Descending FlightAware
08:54AM 33.9590 -118.6840 173° South 231 266 3,400 -1,080 Descending FlightAware
08:55AM 33.9270 -118.6230 122° Southeast 199 229 2,400 -960 Descending FlightAware
08:55AM 33.9300 -118.6000 81° East 189 217 2,100 -540 Descending FlightAware
08:56AM 33.9310 -118.5900 83° East 189 217 1,900 -240 Descending FlightAware
08:56AM 33.9320 -118.5790 84° East 188 216 1,900  Level FlightAware
08:57AM 33.9350 -118.5520 82° East 191 220 1,900 -780 Level FlightAware
08:57AM 33.9390 -118.5070 84° East 159 183 1,200 -1,380 Descending FlightAware
08:57AM 33.9410 -118.4920 81° East 138 159 1,000 -840 Descending FlightAware
08:58AM 33.9430 -118.4690 84° East 138 159 600 -660 Descending FlightAware
08:58AM 33.9450 -118.4560 79° East 140 161 400 -480 Descending FlightAware
08:58AM 33.9450 -118.4490 90° East 140 161 300 -540 Descending FlightAware
08:59AM 33.9470 -118.4360 79° East 142 163 100 -600 Descending FlightAware
09:07AM 33.9425 -118.4081 101° East  Level Estimated